createdAt,value
2022-12-05T00:00:37.469Z,9.37
2022-12-05T00:03:24.446Z,8.70
2022-12-05T00:06:11.409Z,8.83
2022-12-05T00:08:58.735Z,8.93
2022-12-05T00:11:45.747Z,7.83
2022-12-05T00:14:32.736Z,8.37
2022-12-05T00:17:19.700Z,9.03
2022-12-05T00:20:08.051Z,8.43
2022-12-05T00:22:54.967Z,9.27
2022-12-05T00:25:42.182Z,9.03
2022-12-05T00:28:29.178Z,9.07
2022-12-05T00:31:19.439Z,8.40
2022-12-05T00:34:06.906Z,9.07
2022-12-05T00:36:53.805Z,9.40
2022-12-05T00:39:40.737Z,8.37
2022-12-05T00:42:27.640Z,8.20
2022-12-05T00:45:14.583Z,9.33
2022-12-05T00:48:01.508Z,9.20
2022-12-05T00:50:48.442Z,7.77
2022-12-05T00:53:35.946Z,9.33
2022-12-05T00:56:24.213Z,9.03
2022-12-05T00:59:16.952Z,8.93
2022-12-05T01:02:03.888Z,8.87
2022-12-05T01:04:50.842Z,9.27
2022-12-05T01:07:37.841Z,8.33
2022-12-05T01:10:24.795Z,9.10
2022-12-05T01:13:11.735Z,9.17
2022-12-05T01:15:59.118Z,8.63
2022-12-05T01:18:46.574Z,8.90
2022-12-05T01:21:33.569Z,9.50
2022-12-05T01:24:21.818Z,9.10
2022-12-05T01:27:08.897Z,8.80
2022-12-05T01:29:56.239Z,9.13
2022-12-05T01:32:43.448Z,9.13
2022-12-05T01:35:37.847Z,9.50
2022-12-05T01:38:24.861Z,9.23
2022-12-05T01:41:15.297Z,9.57
2022-12-05T01:44:07.054Z,8.70
2022-12-05T01:46:55.138Z,9.00
2022-12-05T01:49:43.027Z,9.30
2022-12-05T01:52:31.755Z,10.80
2022-12-05T01:55:19.574Z,8.83
2022-12-05T01:58:08.241Z,9.20
2022-12-05T02:00:55.376Z,8.60
2022-12-05T02:03:44.342Z,8.87
2022-12-05T02:06:32.973Z,8.77
2022-12-05T02:09:20.661Z,9.00
2022-12-05T02:12:07.740Z,8.80
2022-12-05T02:15:32.063Z,8.43
2022-12-05T02:18:41.017Z,8.37
2022-12-05T02:21:51.020Z,8.53
2022-12-05T02:25:06.759Z,8.73
2022-12-05T02:28:36.665Z,6.90
2022-12-05T02:31:47.036Z,6.33
2022-12-05T02:34:45.455Z,6.50
2022-12-05T02:37:47.782Z,6.77
2022-12-05T02:40:43.548Z,6.83
2022-12-05T02:43:37.517Z,6.20
2022-12-05T02:46:28.911Z,6.27
2022-12-05T02:49:21.526Z,6.70
2022-12-05T02:52:13.445Z,6.70
2022-12-05T02:55:01.528Z,6.33
2022-12-05T02:57:54.753Z,6.03
2022-12-05T03:00:45.077Z,6.07
2022-12-05T03:03:33.366Z,5.77
2022-12-05T03:06:29.564Z,5.03
2022-12-05T03:09:22.322Z,5.13
2022-12-05T03:12:17.453Z,5.87
2022-12-05T03:15:31.324Z,5.23
2022-12-05T03:18:30.399Z,5.33
2022-12-05T03:21:41.998Z,4.77
2022-12-05T03:24:30.504Z,4.57
2022-12-05T03:27:48.882Z,5.77
2022-12-05T03:30:38.816Z,4.10
2022-12-05T03:33:35.910Z,4.03
2022-12-05T03:36:28.055Z,4.20
2022-12-05T03:39:26.889Z,4.37
2022-12-05T03:42:20.840Z,4.73
2022-12-05T03:45:15.898Z,4.37
2022-12-05T03:48:23.294Z,4.57
2022-12-05T03:51:12.962Z,4.57
2022-12-05T03:54:06.718Z,4.17
2022-12-05T03:57:19.834Z,4.37
2022-12-05T04:00:10.460Z,4.87
2022-12-05T04:03:23.001Z,4.77
2022-12-05T04:06:18.604Z,4.77
2022-12-05T04:09:18.190Z,5.10
2022-12-05T04:12:12.202Z,5.00
2022-12-05T04:15:04.938Z,5.00
2022-12-05T04:17:58.371Z,5.20
2022-12-05T04:21:04.986Z,5.53
2022-12-05T04:24:12.219Z,5.50
2022-12-05T04:27:31.419Z,6.23
2022-12-05T04:30:22.610Z,5.67
2022-12-05T04:33:27.736Z,6.50
2022-12-05T04:36:28.528Z,7.00
2022-12-05T04:39:54.472Z,6.47
2022-12-05T04:42:44.184Z,6.60
2022-12-05T04:45:33.568Z,7.40
2022-12-05T04:48:23.460Z,8.00
2022-12-05T04:51:16.339Z,8.43
2022-12-05T04:54:26.319Z,8.47
2022-12-05T04:57:24.865Z,7.67
2022-12-05T05:00:12.490Z,8.70
2022-12-05T05:03:19.071Z,8.47
2022-12-05T05:06:07.542Z,9.80
2022-12-05T05:08:56.979Z,8.90
2022-12-05T05:11:43.998Z,9.57
2022-12-05T05:14:31.061Z,9.83
2022-12-05T05:17:17.998Z,9.53
2022-12-05T05:20:23.708Z,10.43
2022-12-05T05:23:10.698Z,9.57
2022-12-05T05:25:57.620Z,10.47
2022-12-05T05:28:45.436Z,9.87
2022-12-05T05:31:32.839Z,9.50
2022-12-05T05:34:19.847Z,10.37
2022-12-05T05:37:06.756Z,9.53
2022-12-05T05:39:53.698Z,9.10
2022-12-05T05:42:48.601Z,8.93
2022-12-05T05:45:36.858Z,8.97
2022-12-05T05:48:24.091Z,8.23
2022-12-05T05:51:12.792Z,8.97
2022-12-05T05:54:00.343Z,8.83
2022-12-05T05:56:47.295Z,8.87
2022-12-05T05:59:34.426Z,9.80
2022-12-05T06:02:21.425Z,8.83
2022-12-05T06:05:08.721Z,9.37
2022-12-05T06:07:55.727Z,9.40
2022-12-05T06:10:42.685Z,9.43
2022-12-05T06:13:29.601Z,10.07
2022-12-05T06:16:18.647Z,9.77
2022-12-05T06:19:05.653Z,9.77
2022-12-05T06:21:52.662Z,10.23
2022-12-05T06:24:39.634Z,10.20
2022-12-05T06:27:29.686Z,9.77
2022-12-05T06:30:16.910Z,10.07
2022-12-05T06:33:03.878Z,9.30
2022-12-05T06:36:02.365Z,8.70
2022-12-05T06:38:49.363Z,8.73
2022-12-05T06:41:36.355Z,8.80
2022-12-05T06:44:26.830Z,9.23
2022-12-05T06:47:13.735Z,9.47
2022-12-05T06:50:00.793Z,9.07
2022-12-05T06:52:47.812Z,9.10
2022-12-05T06:55:34.744Z,9.20
2022-12-05T06:58:21.650Z,8.50
2022-12-05T07:01:36.607Z,8.73
2022-12-05T07:04:24.431Z,8.77
2022-12-05T07:07:13.124Z,9.03
2022-12-05T07:10:00.228Z,8.30
2022-12-05T07:12:47.429Z,8.20
2022-12-05T07:15:34.366Z,7.97
2022-12-05T07:18:21.285Z,8.80
2022-12-05T07:21:13.593Z,8.87
2022-12-05T07:24:01.032Z,8.97
2022-12-05T07:26:47.949Z,9.07
2022-12-05T07:29:34.907Z,8.80
2022-12-05T07:32:21.824Z,8.77
2022-12-05T07:35:08.931Z,8.90
2022-12-05T07:37:55.851Z,9.50
2022-12-05T07:40:42.761Z,9.37
2022-12-05T07:43:30.600Z,8.50
2022-12-05T07:46:18.080Z,8.73
2022-12-05T07:49:05.351Z,9.07
2022-12-05T07:51:53.128Z,8.30
2022-12-05T07:54:40.052Z,8.80
2022-12-05T07:57:29.754Z,9.37
2022-12-05T08:00:17.332Z,9.13
2022-12-05T08:03:04.344Z,9.23
2022-12-05T08:05:51.289Z,8.33
2022-12-05T08:08:38.595Z,8.63
2022-12-05T08:11:36.012Z,8.17
2022-12-05T08:14:22.928Z,8.40
2022-12-05T08:17:09.955Z,8.00
2022-12-05T08:19:57.311Z,8.33
2022-12-05T08:22:44.698Z,7.70
2022-12-05T08:25:31.638Z,8.73
2022-12-05T08:28:18.569Z,8.17
2022-12-05T08:31:09.161Z,8.13
2022-12-05T08:33:59.285Z,8.30
2022-12-05T08:36:46.830Z,8.40
2022-12-05T08:39:38.188Z,8.13
2022-12-05T08:42:25.556Z,7.80
2022-12-05T08:45:12.501Z,7.83
2022-12-05T08:47:59.446Z,8.43
2022-12-05T08:50:46.626Z,8.23
2022-12-05T08:53:33.816Z,8.27
2022-12-05T08:56:25.059Z,8.97
2022-12-05T08:59:13.963Z,9.97
2022-12-05T09:02:00.938Z,9.40
2022-12-05T09:04:53.892Z,9.10
2022-12-05T09:07:41.335Z,9.17
2022-12-05T09:10:28.557Z,8.40
2022-12-05T09:13:15.476Z,9.80
2022-12-05T09:16:10.951Z,8.77
2022-12-05T09:18:58.407Z,8.73
2022-12-05T09:21:45.355Z,9.43
2022-12-05T09:24:32.258Z,9.33
2022-12-05T09:27:19.996Z,10.00
2022-12-05T09:30:07.647Z,9.37
2022-12-05T09:32:54.764Z,9.20
2022-12-05T09:35:41.670Z,9.50
2022-12-05T09:38:28.604Z,9.40
2022-12-05T09:41:45.804Z,9.33
2022-12-05T09:44:51.633Z,10.20
2022-12-05T09:48:01.446Z,8.80
2022-12-05T09:50:54.136Z,9.77
2022-12-05T09:53:44.147Z,10.53
2022-12-05T09:56:31.329Z,9.53
2022-12-05T09:59:20.518Z,11.00
2022-12-05T10:02:29.371Z,9.83
2022-12-05T10:05:43.276Z,10.27
2022-12-05T10:08:41.098Z,10.90
2022-12-05T10:11:58.937Z,11.20
2022-12-05T10:15:16.997Z,10.33
2022-12-05T10:18:25.198Z,9.93
2022-12-05T10:21:19.726Z,10.30
2022-12-05T10:24:15.813Z,10.67
2022-12-05T10:27:07.113Z,12.87
2022-12-05T10:29:59.892Z,10.00
2022-12-05T10:32:56.522Z,8.73
2022-12-05T10:35:43.522Z,8.97
2022-12-05T10:38:31.287Z,8.20
2022-12-05T10:41:18.315Z,7.90
2022-12-05T10:44:05.689Z,7.80
2022-12-05T10:46:52.668Z,8.70
2022-12-05T10:49:39.995Z,7.90
2022-12-05T10:52:27.035Z,7.50
2022-12-05T10:55:17.636Z,7.23
2022-12-05T10:58:17.028Z,7.17
2022-12-05T11:01:12.738Z,7.17
2022-12-05T11:04:10.496Z,8.00
2022-12-05T11:07:02.775Z,6.90
2022-12-05T11:09:50.085Z,7.73
2022-12-05T11:12:39.429Z,7.17
2022-12-05T11:15:28.761Z,7.33
2022-12-05T11:18:24.725Z,6.63
2022-12-05T11:21:13.871Z,6.53
2022-12-05T11:24:21.355Z,6.67
2022-12-05T11:27:17.447Z,6.87
2022-12-05T11:30:19.076Z,6.80
2022-12-05T11:33:19.629Z,7.07
2022-12-05T11:36:22.224Z,6.73
2022-12-05T11:39:12.041Z,6.40
2022-12-05T11:42:18.967Z,7.23
2022-12-05T11:45:50.857Z,7.10
2022-12-05T11:48:52.851Z,6.27
2022-12-05T11:52:06.949Z,7.93
2022-12-05T11:55:05.068Z,6.90
2022-12-05T11:58:25.245Z,8.27
2022-12-05T12:01:40.092Z,7.97
2022-12-05T12:04:48.888Z,7.53
2022-12-05T12:08:12.496Z,7.27
2022-12-05T12:11:18.851Z,8.53
2022-12-05T12:14:20.579Z,8.93
2022-12-05T12:17:29.033Z,8.60
2022-12-05T12:20:40.263Z,9.20
2022-12-05T12:23:48.725Z,8.80
2022-12-05T12:26:53.264Z,9.07
2022-12-05T12:30:08.007Z,8.43
2022-12-05T12:33:23.988Z,8.00
2022-12-05T12:36:30.507Z,9.20
2022-12-05T12:39:34.229Z,8.67
2022-12-05T12:42:25.623Z,8.53
2022-12-05T12:45:20.294Z,8.20
2022-12-05T12:48:19.915Z,8.00
2022-12-05T12:51:13.312Z,8.30
2022-12-05T12:54:06.367Z,8.60
2022-12-05T12:56:56.273Z,8.33
2022-12-05T12:59:59.371Z,8.47
2022-12-05T13:03:01.487Z,7.80
2022-12-05T13:05:59.009Z,8.00
2022-12-05T13:09:00.506Z,7.97
2022-12-05T13:11:49.662Z,7.87
2022-12-05T13:14:39.502Z,8.37
2022-12-05T13:17:27.574Z,8.00
2022-12-05T13:20:16.979Z,8.63
2022-12-05T13:23:08.217Z,8.23
2022-12-05T13:25:58.155Z,9.00
2022-12-05T13:28:54.635Z,8.57
2022-12-05T13:31:44.889Z,8.23
2022-12-05T13:34:34.098Z,10.07
2022-12-05T13:37:50.081Z,9.00
2022-12-05T13:41:08.663Z,9.50
2022-12-05T13:44:05.859Z,9.10
2022-12-05T13:46:53.165Z,9.10
2022-12-05T13:49:54.337Z,9.07
2022-12-05T13:52:47.776Z,9.37
2022-12-05T13:55:56.769Z,9.63
2022-12-05T13:58:46.054Z,9.03
2022-12-05T14:01:55.423Z,9.40
2022-12-05T14:04:50.496Z,10.10
2022-12-05T14:07:44.207Z,9.27
2022-12-05T14:10:31.095Z,10.03
2022-12-05T14:13:18.034Z,8.80
2022-12-05T14:16:23.370Z,10.17
2022-12-05T14:19:26.684Z,9.57
2022-12-05T14:22:44.786Z,11.53
2022-12-05T14:26:01.172Z,10.57
2022-12-05T14:29:25.117Z,9.40
2022-12-05T14:32:24.060Z,10.97
2022-12-05T14:35:19.574Z,10.40
2022-12-05T14:38:08.315Z,10.63
2022-12-05T14:41:06.143Z,10.60
2022-12-05T14:43:56.661Z,10.60
2022-12-05T14:46:45.121Z,11.10
2022-12-05T14:49:51.890Z,10.83
2022-12-05T14:52:41.045Z,11.00
2022-12-05T14:55:30.392Z,9.77
2022-12-05T14:58:36.047Z,9.43
2022-12-05T15:01:33.222Z,10.63
2022-12-05T15:04:43.150Z,11.00
2022-12-05T15:07:38.948Z,10.77
2022-12-05T15:10:32.405Z,10.47
2022-12-05T15:13:25.055Z,10.67
2022-12-05T15:16:19.382Z,11.17
2022-12-05T15:19:14.476Z,10.70
2022-12-05T15:22:06.484Z,10.70
2022-12-05T15:24:53.448Z,10.43
2022-12-05T15:27:40.622Z,10.90
2022-12-05T15:30:29.076Z,9.73
2022-12-05T15:33:16.038Z,10.73
2022-12-05T15:36:03.937Z,11.10
2022-12-05T15:38:50.852Z,10.70
2022-12-05T15:41:37.811Z,10.20
2022-12-05T15:44:34.247Z,10.53
2022-12-05T15:47:25.790Z,11.87
2022-12-05T15:50:17.127Z,10.70
2022-12-05T15:53:17.430Z,11.00
2022-12-05T15:56:07.781Z,11.27
2022-12-05T15:59:33.094Z,10.90
2022-12-05T16:02:31.833Z,11.60
2022-12-05T16:05:41.162Z,11.80
2022-12-05T16:08:40.664Z,10.53
2022-12-05T16:11:27.847Z,11.33
2022-12-05T16:14:21.598Z,11.07
2022-12-05T16:17:22.672Z,12.80
2022-12-05T16:20:16.711Z,11.77
2022-12-05T16:23:21.348Z,17.57
2022-12-05T16:26:21.636Z,13.03
2022-12-05T16:29:26.218Z,12.23
2022-12-05T16:32:25.210Z,10.80
2022-12-05T16:35:40.821Z,10.77
2022-12-05T16:38:32.268Z,10.40
2022-12-05T16:41:19.400Z,11.10
2022-12-05T16:44:28.935Z,11.40
2022-12-05T16:47:46.454Z,10.40
2022-12-05T16:50:37.558Z,12.73
2022-12-05T16:53:31.499Z,11.13
2022-12-05T16:56:22.448Z,14.27
2022-12-05T16:59:19.557Z,49.77
2022-12-05T17:02:12.657Z,24.07
2022-12-05T17:05:03.077Z,18.37
2022-12-05T17:07:51.811Z,13.73
2022-12-05T17:10:39.507Z,12.07
2022-12-05T17:13:26.454Z,11.63
2022-12-05T17:16:13.421Z,11.03
2022-12-05T17:19:00.490Z,12.23
2022-12-05T17:21:47.520Z,11.57
2022-12-05T17:24:34.482Z,10.63
2022-12-05T17:27:21.439Z,12.67
2022-12-05T17:30:09.314Z,11.53
2022-12-05T17:32:56.289Z,11.83
2022-12-05T17:35:45.038Z,17.70
2022-12-05T17:38:31.973Z,13.67
2022-12-05T17:41:23.242Z,12.10
2022-12-05T17:44:14.337Z,11.17
2022-12-05T17:47:07.576Z,10.07
2022-12-05T17:49:55.027Z,10.30
2022-12-05T17:52:42.357Z,10.37
2022-12-05T17:55:30.836Z,9.87
2022-12-05T17:58:18.013Z,9.70
2022-12-05T18:01:05.181Z,9.50
2022-12-05T18:03:52.159Z,9.10
2022-12-05T18:06:39.436Z,10.80
2022-12-05T18:09:26.367Z,10.33
2022-12-05T18:12:13.284Z,10.70
2022-12-05T18:15:00.450Z,9.60
2022-12-05T18:17:47.736Z,9.50
2022-12-05T18:20:35.353Z,9.40
2022-12-05T18:23:22.310Z,10.83
2022-12-05T18:26:10.391Z,10.33
2022-12-05T18:28:58.856Z,9.50
2022-12-05T18:31:45.918Z,10.40
2022-12-05T18:34:33.047Z,10.10
2022-12-05T18:37:20.080Z,9.47
2022-12-05T18:40:10.003Z,10.47
2022-12-05T18:42:56.921Z,10.03
2022-12-05T18:45:46.608Z,10.10
2022-12-05T18:48:40.057Z,9.70
2022-12-05T18:51:28.527Z,10.60
2022-12-05T18:54:15.489Z,10.10
2022-12-05T18:57:02.527Z,9.30
2022-12-05T18:59:51.899Z,10.60
2022-12-05T19:02:38.910Z,10.07
2022-12-05T19:05:25.965Z,9.73
2022-12-05T19:08:12.937Z,9.60
2022-12-05T19:11:04.909Z,9.90
2022-12-05T19:14:00.465Z,9.67
2022-12-05T19:16:58.030Z,9.37
2022-12-05T19:19:47.003Z,8.93
2022-12-05T19:22:34.014Z,10.07
2022-12-05T19:25:20.972Z,9.43
2022-12-05T19:28:07.900Z,9.53
2022-12-05T19:31:00.122Z,9.97
2022-12-05T19:33:52.216Z,11.03
2022-12-05T19:36:41.836Z,9.93
2022-12-05T19:39:30.233Z,8.80
2022-12-05T19:42:17.327Z,9.03
2022-12-05T19:45:08.820Z,8.30
2022-12-05T19:47:57.322Z,9.20
2022-12-05T19:50:44.357Z,8.43
2022-12-05T19:53:34.653Z,8.80
2022-12-05T19:56:23.791Z,7.93
2022-12-05T19:59:14.731Z,8.23
2022-12-05T20:02:02.414Z,7.60
2022-12-05T20:04:49.380Z,7.70
2022-12-05T20:07:36.369Z,8.13
2022-12-05T20:10:23.359Z,7.63
2022-12-05T20:20:41.459Z,7.53
2022-12-05T20:23:29.193Z,7.50
2022-12-05T20:26:19.278Z,8.07
2022-12-05T20:29:07.000Z,8.17
2022-12-05T20:31:56.668Z,8.03
2022-12-05T20:34:43.775Z,8.00
2022-12-05T20:37:35.236Z,7.53
2022-12-05T20:40:22.569Z,7.80
2022-12-05T20:43:09.498Z,7.53
2022-12-05T20:46:02.512Z,7.90
2022-12-05T20:48:51.276Z,8.23
2022-12-05T20:51:41.160Z,8.10
2022-12-05T20:54:28.205Z,7.67
2022-12-05T20:57:15.287Z,8.00
2022-12-05T21:00:02.943Z,7.13
2022-12-05T21:02:50.122Z,7.20
2022-12-05T21:05:37.265Z,7.50
2022-12-05T21:08:24.511Z,7.90
2022-12-05T21:11:12.405Z,7.63
2022-12-05T21:14:00.269Z,7.50
2022-12-05T21:16:47.567Z,7.50
2022-12-05T21:19:34.652Z,7.53
2022-12-05T21:22:21.573Z,8.17
2022-12-05T21:25:08.519Z,7.77
2022-12-05T21:27:55.466Z,7.40
2022-12-05T21:30:42.423Z,7.43
2022-12-05T21:33:29.377Z,7.63
2022-12-05T21:36:17.210Z,7.47
2022-12-05T21:39:05.623Z,7.77
2022-12-05T21:41:52.670Z,8.20
2022-12-05T21:44:39.672Z,7.50
2022-12-05T21:47:28.275Z,8.00
2022-12-05T21:50:15.203Z,7.40
2022-12-05T21:53:02.151Z,7.23
2022-12-05T21:55:59.098Z,6.40
2022-12-05T21:58:47.107Z,6.27
2022-12-05T22:01:34.201Z,6.53
2022-12-05T22:04:21.316Z,6.20
2022-12-05T22:07:08.358Z,6.30
2022-12-05T22:09:55.315Z,6.23
2022-12-05T22:12:42.344Z,6.20
2022-12-05T22:15:29.302Z,6.33
2022-12-05T22:18:16.233Z,6.57
2022-12-05T22:21:06.181Z,7.83
2022-12-05T22:23:53.357Z,7.63
2022-12-05T22:26:40.340Z,7.80
2022-12-05T22:29:27.285Z,6.67
2022-12-05T22:32:14.390Z,7.13
2022-12-05T22:35:03.986Z,6.20
2022-12-05T22:37:53.853Z,6.13
2022-12-05T22:40:40.729Z,6.60
2022-12-05T22:43:29.537Z,6.77
2022-12-05T22:46:19.076Z,6.83
2022-12-05T22:49:06.436Z,6.17
2022-12-05T22:51:53.538Z,6.17
2022-12-05T22:54:40.481Z,6.47
2022-12-05T22:57:27.414Z,6.33
2022-12-05T23:00:15.041Z,5.67
2022-12-05T23:03:02.069Z,5.70
2022-12-05T23:05:49.173Z,5.40
2022-12-05T23:08:36.936Z,6.20
2022-12-05T23:11:25.428Z,6.10
2022-12-05T23:14:12.444Z,6.67
2022-12-05T23:16:59.454Z,6.63
2022-12-05T23:19:46.496Z,7.20
2022-12-05T23:22:33.887Z,7.73
2022-12-05T23:25:20.892Z,6.53
2022-12-05T23:28:07.986Z,5.97
2022-12-05T23:30:54.996Z,5.73
2022-12-05T23:33:42.083Z,6.30
2022-12-05T23:36:29.274Z,6.10
2022-12-05T23:39:16.290Z,6.13
2022-12-05T23:42:03.348Z,5.80
2022-12-05T23:44:50.379Z,6.40
2022-12-05T23:47:37.508Z,7.10
2022-12-05T23:50:24.501Z,7.40
2022-12-05T23:53:12.434Z,6.90
2022-12-05T23:56:19.852Z,6.70
2022-12-05T23:59:08.194Z,7.00
